KEDE/EDE METAR and TAF weather

Enter ICAO airport designator
Station Type Date Time Source
KEDE METAR 2022/06/30 01:55 UTC NOAA

KEDE 300155Z AUTO 17005KT 5SM HZ CLR 25/22 A3026 RMK AO2 T02450215


Station Type Date Time Source
KEDE Decoded METAR 2022/06/30 01:55 UTC NOAA

Edenton, Northeastern Regional Airport, NC, United States (KEDE) 36-01-40N 076-34-02W
Jun 29, 2022 - 09:55 PM EDT / 2022.06.30 0155 UTC
Wind: from the S (170 degrees) at 6 MPH (5 KT):0
Visibility: 5 mile(s):0
Sky conditions: clear
Weather: haze
Temperature: 76.1 F (24.5 C)
Dew Point: 70.7 F (21.5 C)
Relative Humidity: 83%
Pressure (altimeter): 30.26 in. Hg (1024 hPa)
ob: KEDE 300155Z AUTO 17005KT 5SM HZ CLR 25/22 A3026 RMK AO2 T02450215
cycle: 2

Station Type Date Time Source
KEDE TAF UTC NOAA

Error!

Example: see airport list